sensor_id;sensor_type;location;lat;lon;timestamp;P1;durP1;ratioP1;P2;durP2;ratioP2
30420;SDS011;17218;54.070;10.012;2022-09-21T00:01:40;9.23;;;4.67;;
30420;SDS011;17218;54.070;10.012;2022-09-21T00:04:07;5.95;;;4.07;;
30420;SDS011;17218;54.070;10.012;2022-09-21T00:06:34;4.80;;;4.30;;
30420;SDS011;17218;54.070;10.012;2022-09-21T00:09:02;6.30;;;4.05;;
30420;SDS011;17218;54.070;10.012;2022-09-21T00:11:31;5.38;;;3.97;;
30420;SDS011;17218;54.070;10.012;2022-09-21T00:14:01;5.05;;;4.25;;
30420;SDS011;17218;54.070;10.012;2022-09-21T00:16:31;5.30;;;4.03;;
30420;SDS011;17218;54.070;10.012;2022-09-21T00:18:58;5.45;;;4.15;;
30420;SDS011;17218;54.070;10.012;2022-09-21T00:21:24;4.83;;;3.73;;
30420;SDS011;17218;54.070;10.012;2022-09-21T00:23:52;9.02;;;3.92;;
30420;SDS011;17218;54.070;10.012;2022-09-21T00:26:20;5.05;;;4.38;;
30420;SDS011;17218;54.070;10.012;2022-09-21T00:28:51;5.88;;;4.07;;
30420;SDS011;17218;54.070;10.012;2022-09-21T00:31:19;5.00;;;4.07;;
30420;SDS011;17218;54.070;10.012;2022-09-21T00:33:46;5.60;;;4.33;;
30420;SDS011;17218;54.070;10.012;2022-09-21T00:36:15;4.30;;;3.90;;
30420;SDS011;17218;54.070;10.012;2022-09-21T00:38:43;4.28;;;3.47;;
30420;SDS011;17218;54.070;10.012;2022-09-21T00:41:11;4.25;;;3.25;;
30420;SDS011;17218;54.070;10.012;2022-09-21T00:43:41;7.07;;;4.03;;
30420;SDS011;17218;54.070;10.012;2022-09-21T00:46:12;7.20;;;4.10;;
30420;SDS011;17218;54.070;10.012;2022-09-21T00:48:47;4.38;;;3.97;;
30420;SDS011;17218;54.070;10.012;2022-09-21T00:51:13;4.40;;;3.97;;
30420;SDS011;17218;54.070;10.012;2022-09-21T00:53:40;4.97;;;3.53;;
30420;SDS011;17218;54.070;10.012;2022-09-21T00:56:08;5.07;;;3.90;;
30420;SDS011;17218;54.070;10.012;2022-09-21T00:58:37;5.20;;;3.63;;
30420;SDS011;17218;54.070;10.012;2022-09-21T01:01:08;6.60;;;3.80;;
30420;SDS011;17218;54.070;10.012;2022-09-21T01:03:38;3.93;;;3.10;;
30420;SDS011;17218;54.070;10.012;2022-09-21T01:06:09;4.72;;;3.80;;
30420;SDS011;17218;54.070;10.012;2022-09-21T01:08:36;4.37;;;3.20;;
30420;SDS011;17218;54.070;10.012;2022-09-21T01:11:18;5.97;;;3.50;;
30420;SDS011;17218;54.070;10.012;2022-09-21T01:13:59;4.63;;;3.50;;
30420;SDS011;17218;54.070;10.012;2022-09-21T01:16:37;6.70;;;3.67;;
30420;SDS011;17218;54.070;10.012;2022-09-21T01:19:13;4.80;;;3.60;;
30420;SDS011;17218;54.070;10.012;2022-09-21T01:21:52;5.95;;;3.50;;
30420;SDS011;17218;54.070;10.012;2022-09-21T01:24:31;4.93;;;3.53;;
30420;SDS011;17218;54.070;10.012;2022-09-21T01:30:13;6.20;;;4.10;;
30420;SDS011;17218;54.070;10.012;2022-09-21T01:32:42;5.07;;;3.70;;
30420;SDS011;17218;54.070;10.012;2022-09-21T01:35:15;4.30;;;3.30;;
30420;SDS011;17218;54.070;10.012;2022-09-21T01:37:46;5.57;;;3.90;;
30420;SDS011;17218;54.070;10.012;2022-09-21T01:40:17;3.90;;;3.20;;
30420;SDS011;17218;54.070;10.012;2022-09-21T01:42:46;5.00;;;3.90;;
30420;SDS011;17218;54.070;10.012;2022-09-21T01:45:18;6.43;;;3.63;;
30420;SDS011;17218;54.070;10.012;2022-09-21T01:47:48;5.17;;;3.77;;
30420;SDS011;17218;54.070;10.012;2022-09-21T01:50:17;4.60;;;3.47;;
30420;SDS011;17218;54.070;10.012;2022-09-21T01:52:46;6.83;;;3.47;;
30420;SDS011;17218;54.070;10.012;2022-09-21T01:55:19;4.53;;;3.20;;
30420;SDS011;17218;54.070;10.012;2022-09-21T01:57:53;4.40;;;2.77;;
30420;SDS011;17218;54.070;10.012;2022-09-21T02:00:25;4.43;;;3.00;;
30420;SDS011;17218;54.070;10.012;2022-09-21T02:02:54;4.13;;;3.40;;
30420;SDS011;17218;54.070;10.012;2022-09-21T02:05:25;4.13;;;2.93;;
30420;SDS011;17218;54.070;10.012;2022-09-21T02:07:55;5.43;;;3.10;;
30420;SDS011;17218;54.070;10.012;2022-09-21T02:10:23;4.30;;;3.00;;
30420;SDS011;17218;54.070;10.012;2022-09-21T02:12:55;4.13;;;3.10;;
30420;SDS011;17218;54.070;10.012;2022-09-21T02:15:27;4.10;;;2.90;;
30420;SDS011;17218;54.070;10.012;2022-09-21T02:18:03;5.00;;;3.37;;
30420;SDS011;17218;54.070;10.012;2022-09-21T02:20:33;4.50;;;3.20;;
30420;SDS011;17218;54.070;10.012;2022-09-21T02:23:09;3.10;;;2.80;;
30420;SDS011;17218;54.070;10.012;2022-09-21T02:25:42;3.60;;;2.83;;
30420;SDS011;17218;54.070;10.012;2022-09-21T02:28:16;5.87;;;3.07;;
30420;SDS011;17218;54.070;10.012;2022-09-21T02:30:54;3.70;;;3.03;;
30420;SDS011;17218;54.070;10.012;2022-09-21T02:33:30;3.40;;;2.93;;
30420;SDS011;17218;54.070;10.012;2022-09-21T02:36:04;4.03;;;3.03;;
30420;SDS011;17218;54.070;10.012;2022-09-21T02:38:34;3.10;;;2.50;;
30420;SDS011;17218;54.070;10.012;2022-09-21T02:41:06;4.87;;;3.20;;
30420;SDS011;17218;54.070;10.012;2022-09-21T02:43:38;3.27;;;2.80;;
30420;SDS011;17218;54.070;10.012;2022-09-21T02:46:11;2.93;;;2.60;;
30420;SDS011;17218;54.070;10.012;2022-09-21T02:48:42;3.80;;;2.80;;
30420;SDS011;17218;54.070;10.012;2022-09-21T02:51:15;3.43;;;2.50;;
30420;SDS011;17218;54.070;10.012;2022-09-21T02:53:44;4.10;;;3.00;;
30420;SDS011;17218;54.070;10.012;2022-09-21T02:56:13;2.97;;;2.63;;
30420;SDS011;17218;54.070;10.012;2022-09-21T02:58:42;3.60;;;2.70;;
30420;SDS011;17218;54.070;10.012;2022-09-21T03:01:14;3.60;;;2.30;;
30420;SDS011;17218;54.070;10.012;2022-09-21T03:03:42;3.27;;;2.67;;
30420;SDS011;17218;54.070;10.012;2022-09-21T03:06:09;4.20;;;2.70;;
30420;SDS011;17218;54.070;10.012;2022-09-21T03:08:35;3.50;;;2.40;;
30420;SDS011;17218;54.070;10.012;2022-09-21T03:11:02;5.67;;;2.63;;
30420;SDS011;17218;54.070;10.012;2022-09-21T03:13:28;4.27;;;2.87;;
30420;SDS011;17218;54.070;10.012;2022-09-21T03:15:58;6.13;;;3.17;;
30420;SDS011;17218;54.070;10.012;2022-09-21T03:18:27;4.97;;;2.87;;
30420;SDS011;17218;54.070;10.012;2022-09-21T03:20:54;6.07;;;2.83;;
30420;SDS011;17218;54.070;10.012;2022-09-21T03:23:20;3.10;;;2.57;;
30420;SDS011;17218;54.070;10.012;2022-09-21T03:25:47;6.10;;;3.00;;
30420;SDS011;17218;54.070;10.012;2022-09-21T03:28:16;3.20;;;2.80;;
30420;SDS011;17218;54.070;10.012;2022-09-21T03:30:43;3.07;;;2.40;;
30420;SDS011;17218;54.070;10.012;2022-09-21T03:33:10;3.67;;;2.77;;
30420;SDS011;17218;54.070;10.012;2022-09-21T03:35:39;3.30;;;2.63;;
30420;SDS011;17218;54.070;10.012;2022-09-21T03:38:06;4.23;;;3.10;;
30420;SDS011;17218;54.070;10.012;2022-09-21T03:40:32;3.93;;;2.90;;
30420;SDS011;17218;54.070;10.012;2022-09-21T03:42:59;3.60;;;3.03;;
30420;SDS011;17218;54.070;10.012;2022-09-21T03:45:25;4.03;;;3.07;;
30420;SDS011;17218;54.070;10.012;2022-09-21T03:47:53;4.20;;;3.00;;
30420;SDS011;17218;54.070;10.012;2022-09-21T03:50:20;4.57;;;3.43;;
30420;SDS011;17218;54.070;10.012;2022-09-21T03:52:48;5.97;;;3.17;;
30420;SDS011;17218;54.070;10.012;2022-09-21T03:55:15;7.87;;;3.27;;
30420;SDS011;17218;54.070;10.012;2022-09-21T03:57:41;3.60;;;2.70;;
30420;SDS011;17218;54.070;10.012;2022-09-21T04:00:09;3.93;;;3.30;;
30420;SDS011;17218;54.070;10.012;2022-09-21T04:02:37;4.00;;;2.93;;
30420;SDS011;17218;54.070;10.012;2022-09-21T04:05:04;4.57;;;3.53;;
30420;SDS011;17218;54.070;10.012;2022-09-21T04:07:32;4.23;;;2.90;;
30420;SDS011;17218;54.070;10.012;2022-09-21T04:10:01;4.03;;;3.00;;
30420;SDS011;17218;54.070;10.012;2022-09-21T04:12:28;3.40;;;3.10;;
30420;SDS011;17218;54.070;10.012;2022-09-21T04:14:55;5.40;;;3.23;;
30420;SDS011;17218;54.070;10.012;2022-09-21T04:17:21;4.53;;;2.63;;
30420;SDS011;17218;54.070;10.012;2022-09-21T04:19:48;4.10;;;2.90;;
30420;SDS011;17218;54.070;10.012;2022-09-21T04:22:14;4.90;;;2.73;;
30420;SDS011;17218;54.070;10.012;2022-09-21T04:24:41;3.47;;;2.90;;
30420;SDS011;17218;54.070;10.012;2022-09-21T04:27:09;3.60;;;3.10;;
30420;SDS011;17218;54.070;10.012;2022-09-21T04:29:37;4.67;;;3.20;;
30420;SDS011;17218;54.070;10.012;2022-09-21T04:32:04;3.60;;;3.20;;
30420;SDS011;17218;54.070;10.012;2022-09-21T04:34:31;3.70;;;3.00;;
30420;SDS011;17218;54.070;10.012;2022-09-21T04:36:57;4.90;;;2.80;;
30420;SDS011;17218;54.070;10.012;2022-09-21T04:39:24;3.97;;;2.67;;
30420;SDS011;17218;54.070;10.012;2022-09-21T04:41:51;3.13;;;2.83;;
30420;SDS011;17218;54.070;10.012;2022-09-21T04:44:19;6.60;;;5.00;;
30420;SDS011;17218;54.070;10.012;2022-09-21T04:46:45;3.87;;;2.83;;
30420;SDS011;17218;54.070;10.012;2022-09-21T04:49:12;7.30;;;2.97;;
30420;SDS011;17218;54.070;10.012;2022-09-21T04:51:38;5.30;;;3.23;;
30420;SDS011;17218;54.070;10.012;2022-09-21T04:54:05;6.33;;;2.87;;
30420;SDS011;17218;54.070;10.012;2022-09-21T04:56:31;2.93;;;2.63;;
30420;SDS011;17218;54.070;10.012;2022-09-21T04:58:58;4.10;;;3.20;;
30420;SDS011;17218;54.070;10.012;2022-09-21T05:01:26;6.73;;;2.67;;
30420;SDS011;17218;54.070;10.012;2022-09-21T05:03:53;4.63;;;3.00;;
30420;SDS011;17218;54.070;10.012;2022-09-21T05:06:22;3.57;;;2.50;;
30420;SDS011;17218;54.070;10.012;2022-09-21T05:08:49;3.57;;;2.93;;
30420;SDS011;17218;54.070;10.012;2022-09-21T05:11:33;4.83;;;2.60;;
30420;SDS011;17218;54.070;10.012;2022-09-21T05:13:59;4.73;;;2.73;;
30420;SDS011;17218;54.070;10.012;2022-09-21T05:16:27;5.97;;;3.10;;
30420;SDS011;17218;54.070;10.012;2022-09-21T05:18:54;4.37;;;3.00;;
30420;SDS011;17218;54.070;10.012;2022-09-21T05:21:20;4.03;;;2.80;;
30420;SDS011;17218;54.070;10.012;2022-09-21T05:23:47;4.93;;;2.90;;
30420;SDS011;17218;54.070;10.012;2022-09-21T05:26:13;6.20;;;2.53;;
30420;SDS011;17218;54.070;10.012;2022-09-21T05:28:40;4.63;;;3.20;;
30420;SDS011;17218;54.070;10.012;2022-09-21T05:31:11;2.67;;;2.30;;
30420;SDS011;17218;54.070;10.012;2022-09-21T05:33:55;2.90;;;2.60;;
30420;SDS011;17218;54.070;10.012;2022-09-21T05:36:30;3.73;;;2.33;;
30420;SDS011;17218;54.070;10.012;2022-09-21T05:39:05;3.50;;;2.83;;
30420;SDS011;17218;54.070;10.012;2022-09-21T05:41:32;3.53;;;3.00;;
30420;SDS011;17218;54.070;10.012;2022-09-21T05:43:59;3.67;;;2.77;;
30420;SDS011;17218;54.070;10.012;2022-09-21T05:46:31;3.03;;;2.23;;
30420;SDS011;17218;54.070;10.012;2022-09-21T05:49:05;5.10;;;3.10;;
30420;SDS011;17218;54.070;10.012;2022-09-21T05:51:43;4.47;;;3.00;;
30420;SDS011;17218;54.070;10.012;2022-09-21T05:54:18;5.57;;;2.90;;
30420;SDS011;17218;54.070;10.012;2022-09-21T05:56:51;3.73;;;2.67;;
30420;SDS011;17218;54.070;10.012;2022-09-21T05:59:30;3.80;;;2.93;;
30420;SDS011;17218;54.070;10.012;2022-09-21T06:02:05;4.27;;;2.87;;
30420;SDS011;17218;54.070;10.012;2022-09-21T06:04:43;5.47;;;3.00;;
30420;SDS011;17218;54.070;10.012;2022-09-21T06:07:12;4.70;;;3.00;;
30420;SDS011;17218;54.070;10.012;2022-09-21T06:09:38;3.83;;;2.87;;
30420;SDS011;17218;54.070;10.012;2022-09-21T06:12:05;6.97;;;3.10;;
30420;SDS011;17218;54.070;10.012;2022-09-21T06:14:31;4.47;;;3.23;;
30420;SDS011;17218;54.070;10.012;2022-09-21T06:16:58;4.97;;;3.20;;
30420;SDS011;17218;54.070;10.012;2022-09-21T06:19:24;4.10;;;3.53;;
30420;SDS011;17218;54.070;10.012;2022-09-21T06:21:52;5.13;;;3.73;;
30420;SDS011;17218;54.070;10.012;2022-09-21T06:24:18;8.07;;;3.27;;
30420;SDS011;17218;54.070;10.012;2022-09-21T06:26:45;4.53;;;3.50;;
30420;SDS011;17218;54.070;10.012;2022-09-21T06:29:11;6.07;;;4.00;;
30420;SDS011;17218;54.070;10.012;2022-09-21T06:31:38;6.07;;;4.10;;
30420;SDS011;17218;54.070;10.012;2022-09-21T06:34:04;7.70;;;5.47;;
30420;SDS011;17218;54.070;10.012;2022-09-21T06:36:31;9.33;;;5.87;;
30420;SDS011;17218;54.070;10.012;2022-09-21T06:38:59;7.13;;;4.73;;
30420;SDS011;17218;54.070;10.012;2022-09-21T06:41:25;6.53;;;4.27;;
30420;SDS011;17218;54.070;10.012;2022-09-21T06:43:52;6.47;;;4.63;;
30420;SDS011;17218;54.070;10.012;2022-09-21T06:46:20;6.63;;;4.63;;
30420;SDS011;17218;54.070;10.012;2022-09-21T06:48:47;5.80;;;4.43;;
30420;SDS011;17218;54.070;10.012;2022-09-21T06:51:14;6.73;;;4.80;;
30420;SDS011;17218;54.070;10.012;2022-09-21T06:53:40;7.73;;;5.27;;
30420;SDS011;17218;54.070;10.012;2022-09-21T06:56:08;6.10;;;4.77;;
30420;SDS011;17218;54.070;10.012;2022-09-21T06:58:36;7.03;;;4.70;;
30420;SDS011;17218;54.070;10.012;2022-09-21T07:01:03;9.25;;;4.90;;
30420;SDS011;17218;54.070;10.012;2022-09-21T07:03:31;6.90;;;4.65;;
30420;SDS011;17218;54.070;10.012;2022-09-21T07:05:58;5.60;;;5.00;;
30420;SDS011;17218;54.070;10.012;2022-09-21T07:08:24;6.47;;;5.10;;
30420;SDS011;17218;54.070;10.012;2022-09-21T07:10:51;7.80;;;5.20;;
30420;SDS011;17218;54.070;10.012;2022-09-21T07:13:19;7.80;;;5.57;;
30420;SDS011;17218;54.070;10.012;2022-09-21T07:15:47;6.35;;;5.65;;
30420;SDS011;17218;54.070;10.012;2022-09-21T07:18:13;7.45;;;5.00;;
30420;SDS011;17218;54.070;10.012;2022-09-21T07:20:40;7.88;;;4.63;;
30420;SDS011;17218;54.070;10.012;2022-09-21T07:23:10;5.80;;;4.50;;
30420;SDS011;17218;54.070;10.012;2022-09-21T07:25:38;7.10;;;4.35;;
30420;SDS011;17218;54.070;10.012;2022-09-21T07:28:04;6.32;;;5.00;;
30420;SDS011;17218;54.070;10.012;2022-09-21T07:30:32;7.40;;;4.78;;
30420;SDS011;17218;54.070;10.012;2022-09-21T07:32:59;5.40;;;4.20;;
30420;SDS011;17218;54.070;10.012;2022-09-21T07:35:25;7.68;;;4.53;;
30420;SDS011;17218;54.070;10.012;2022-09-21T07:37:52;9.60;;;4.82;;
30420;SDS011;17218;54.070;10.012;2022-09-21T07:40:20;8.65;;;4.50;;
30420;SDS011;17218;54.070;10.012;2022-09-21T07:42:47;4.97;;;4.47;;
30420;SDS011;17218;54.070;10.012;2022-09-21T07:45:13;6.18;;;3.90;;
30420;SDS011;17218;54.070;10.012;2022-09-21T07:47:42;7.95;;;3.97;;
30420;SDS011;17218;54.070;10.012;2022-09-21T07:50:09;6.03;;;3.42;;
30420;SDS011;17218;54.070;10.012;2022-09-21T07:52:36;7.32;;;3.40;;
30420;SDS011;17218;54.070;10.012;2022-09-21T07:55:02;4.47;;;3.15;;
30420;SDS011;17218;54.070;10.012;2022-09-21T07:57:29;3.65;;;2.90;;
30420;SDS011;17218;54.070;10.012;2022-09-21T08:00:14;7.80;;;3.53;;
30420;SDS011;17218;54.070;10.012;2022-09-21T08:02:40;4.97;;;3.10;;
30420;SDS011;17218;54.070;10.012;2022-09-21T08:05:08;4.53;;;3.17;;
30420;SDS011;17218;54.070;10.012;2022-09-21T08:07:35;4.88;;;2.85;;
30420;SDS011;17218;54.070;10.012;2022-09-21T08:10:01;5.38;;;2.88;;
30420;SDS011;17218;54.070;10.012;2022-09-21T08:12:28;3.60;;;2.88;;
30420;SDS011;17218;54.070;10.012;2022-09-21T08:14:55;3.50;;;2.30;;
30420;SDS011;17218;54.070;10.012;2022-09-21T08:17:21;5.00;;;2.25;;
30420;SDS011;17218;54.070;10.012;2022-09-21T08:19:48;6.00;;;2.88;;
30420;SDS011;17218;54.070;10.012;2022-09-21T08:22:16;4.32;;;2.17;;
30420;SDS011;17218;54.070;10.012;2022-09-21T08:24:42;3.08;;;2.10;;
30420;SDS011;17218;54.070;10.012;2022-09-21T08:27:10;3.63;;;2.05;;
30420;SDS011;17218;54.070;10.012;2022-09-21T08:29:36;4.50;;;2.00;;
30420;SDS011;17218;54.070;10.012;2022-09-21T08:32:03;2.83;;;2.17;;
30420;SDS011;17218;54.070;10.012;2022-09-21T08:34:29;4.43;;;1.50;;
30420;SDS011;17218;54.070;10.012;2022-09-21T08:36:56;2.08;;;1.67;;
30420;SDS011;17218;54.070;10.012;2022-09-21T08:39:24;3.95;;;2.00;;
30420;SDS011;17218;54.070;10.012;2022-09-21T08:41:58;2.03;;;1.55;;
30420;SDS011;17218;54.070;10.012;2022-09-21T08:44:31;3.72;;;1.60;;
30420;SDS011;17218;54.070;10.012;2022-09-21T08:47:05;2.20;;;1.75;;
30420;SDS011;17218;54.070;10.012;2022-09-21T08:49:39;1.58;;;1.20;;
30420;SDS011;17218;54.070;10.012;2022-09-21T08:52:10;4.15;;;1.52;;
30420;SDS011;17218;54.070;10.012;2022-09-21T08:54:41;2.38;;;1.73;;
30420;SDS011;17218;54.070;10.012;2022-09-21T08:57:12;1.70;;;1.48;;
30420;SDS011;17218;54.070;10.012;2022-09-21T08:59:42;7.30;;;1.85;;
30420;SDS011;17218;54.070;10.012;2022-09-21T09:02:19;3.55;;;1.52;;
30420;SDS011;17218;54.070;10.012;2022-09-21T09:05:19;1.77;;;1.35;;
30420;SDS011;17218;54.070;10.012;2022-09-21T09:08:01;3.90;;;1.77;;
30420;SDS011;17218;54.070;10.012;2022-09-21T09:10:46;1.92;;;1.50;;
30420;SDS011;17218;54.070;10.012;2022-09-21T09:13:28;1.48;;;1.10;;
30420;SDS011;17218;54.070;10.012;2022-09-21T09:16:09;2.20;;;1.20;;
30420;SDS011;17218;54.070;10.012;2022-09-21T09:18:44;1.38;;;1.27;;
30420;SDS011;17218;54.070;10.012;2022-09-21T09:21:18;1.20;;;1.10;;
30420;SDS011;17218;54.070;10.012;2022-09-21T09:23:47;3.35;;;1.20;;
30420;SDS011;17218;54.070;10.012;2022-09-21T09:26:20;1.23;;;1.02;;
30420;SDS011;17218;54.070;10.012;2022-09-21T09:28:53;1.10;;;0.95;;
30420;SDS011;17218;54.070;10.012;2022-09-21T09:31:24;1.92;;;1.13;;
30420;SDS011;17218;54.070;10.012;2022-09-21T09:33:56;1.38;;;0.98;;
30420;SDS011;17218;54.070;10.012;2022-09-21T09:36:28;1.00;;;0.73;;
30420;SDS011;17218;54.070;10.012;2022-09-21T09:38:59;1.55;;;0.95;;
30420;SDS011;17218;54.070;10.012;2022-09-21T09:41:35;1.73;;;0.98;;
30420;SDS011;17218;54.070;10.012;2022-09-21T09:44:19;1.85;;;0.73;;
30420;SDS011;17218;54.070;10.012;2022-09-21T09:46:57;3.03;;;1.25;;
30420;SDS011;17218;54.070;10.012;2022-09-21T09:49:31;0.85;;;0.80;;
30420;SDS011;17218;54.070;10.012;2022-09-21T09:52:04;2.03;;;1.10;;
30420;SDS011;17218;54.070;10.012;2022-09-21T09:54:35;0.73;;;0.73;;
30420;SDS011;17218;54.070;10.012;2022-09-21T09:57:03;1.58;;;0.88;;
30420;SDS011;17218;54.070;10.012;2022-09-21T09:59:33;0.95;;;0.70;;
30420;SDS011;17218;54.070;10.012;2022-09-21T10:02:03;2.15;;;0.88;;
30420;SDS011;17218;54.070;10.012;2022-09-21T10:04:30;1.00;;;0.60;;
30420;SDS011;17218;54.070;10.012;2022-09-21T10:06:58;1.95;;;0.80;;
30420;SDS011;17218;54.070;10.012;2022-09-21T10:09:25;1.55;;;0.77;;
30420;SDS011;17218;54.070;10.012;2022-09-21T10:11:55;1.08;;;0.80;;
30420;SDS011;17218;54.070;10.012;2022-09-21T10:14:26;0.93;;;0.60;;
30420;SDS011;17218;54.070;10.012;2022-09-21T10:16:55;2.05;;;0.50;;
30420;SDS011;17218;54.070;10.012;2022-09-21T10:19:28;1.02;;;0.70;;
30420;SDS011;17218;54.070;10.012;2022-09-21T10:21:56;0.40;;;0.40;;
30420;SDS011;17218;54.070;10.012;2022-09-21T10:24:24;2.10;;;0.75;;
30420;SDS011;17218;54.070;10.012;2022-09-21T10:26:54;0.82;;;0.30;;
30420;SDS011;17218;54.070;10.012;2022-09-21T10:29:29;1.17;;;0.60;;
30420;SDS011;17218;54.070;10.012;2022-09-21T10:31:58;0.75;;;0.50;;
30420;SDS011;17218;54.070;10.012;2022-09-21T10:34:27;1.85;;;0.63;;
30420;SDS011;17218;54.070;10.012;2022-09-21T10:36:55;0.80;;;0.50;;
30420;SDS011;17218;54.070;10.012;2022-09-21T10:39:24;0.63;;;0.50;;
30420;SDS011;17218;54.070;10.012;2022-09-21T10:41:59;1.20;;;0.50;;
30420;SDS011;17218;54.070;10.012;2022-09-21T10:44:36;0.77;;;0.68;;
30420;SDS011;17218;54.070;10.012;2022-09-21T10:47:14;0.32;;;0.32;;
30420;SDS011;17218;54.070;10.012;2022-09-21T10:49:48;0.75;;;0.47;;
30420;SDS011;17218;54.070;10.012;2022-09-21T10:52:16;1.45;;;0.52;;
30420;SDS011;17218;54.070;10.012;2022-09-21T10:54:46;0.60;;;0.60;;
30420;SDS011;17218;54.070;10.012;2022-09-21T10:57:21;0.82;;;0.50;;
30420;SDS011;17218;54.070;10.012;2022-09-21T10:59:51;0.73;;;0.47;;
30420;SDS011;17218;54.070;10.012;2022-09-21T11:02:25;0.40;;;0.30;;
30420;SDS011;17218;54.070;10.012;2022-09-21T11:04:59;1.10;;;0.45;;
30420;SDS011;17218;54.070;10.012;2022-09-21T11:07:32;1.95;;;0.52;;
30420;SDS011;17218;54.070;10.012;2022-09-21T11:10:07;0.88;;;0.47;;
30420;SDS011;17218;54.070;10.012;2022-09-21T11:12:41;0.93;;;0.40;;
30420;SDS011;17218;54.070;10.012;2022-09-21T11:15:24;0.93;;;0.45;;
30420;SDS011;17218;54.070;10.012;2022-09-21T11:18:03;0.68;;;0.40;;
30420;SDS011;17218;54.070;10.012;2022-09-21T11:20:38;0.35;;;0.35;;
30420;SDS011;17218;54.070;10.012;2022-09-21T11:23:14;0.65;;;0.38;;
30420;SDS011;17218;54.070;10.012;2022-09-21T11:25:49;0.38;;;0.38;;
30420;SDS011;17218;54.070;10.012;2022-09-21T11:28:25;0.30;;;0.30;;
30420;SDS011;17218;54.070;10.012;2022-09-21T11:31:01;0.70;;;0.30;;
30420;SDS011;17218;54.070;10.012;2022-09-21T11:33:50;1.42;;;0.30;;
30420;SDS011;17218;54.070;10.012;2022-09-21T11:36:38;0.63;;;0.50;;
30420;SDS011;17218;54.070;10.012;2022-09-21T11:39:13;0.60;;;0.50;;
30420;SDS011;17218;54.070;10.012;2022-09-21T11:41:58;0.43;;;0.35;;
30420;SDS011;17218;54.070;10.012;2022-09-21T11:44:40;0.70;;;0.47;;
30420;SDS011;17218;54.070;10.012;2022-09-21T11:47:20;0.43;;;0.40;;
30420;SDS011;17218;54.070;10.012;2022-09-21T11:52:55;1.85;;;0.40;;
30420;SDS011;17218;54.070;10.012;2022-09-21T11:55:35;0.68;;;0.43;;
30420;SDS011;17218;54.070;10.012;2022-09-21T11:58:11;0.60;;;0.50;;
30420;SDS011;17218;54.070;10.012;2022-09-21T12:00:48;1.67;;;0.40;;
30420;SDS011;17218;54.070;10.012;2022-09-21T12:03:29;0.63;;;0.50;;
30420;SDS011;17218;54.070;10.012;2022-09-21T12:06:09;0.40;;;0.40;;
30420;SDS011;17218;54.070;10.012;2022-09-21T12:08:46;1.05;;;0.50;;
30420;SDS011;17218;54.070;10.012;2022-09-21T12:11:23;1.38;;;0.45;;
30420;SDS011;17218;54.070;10.012;2022-09-21T12:13:58;0.43;;;0.40;;
30420;SDS011;17218;54.070;10.012;2022-09-21T12:16:33;1.65;;;0.35;;
30420;SDS011;17218;54.070;10.012;2022-09-21T12:19:08;0.93;;;0.43;;
30420;SDS011;17218;54.070;10.012;2022-09-21T12:21:44;0.40;;;0.40;;
30420;SDS011;17218;54.070;10.012;2022-09-21T12:24:14;0.55;;;0.40;;
30420;SDS011;17218;54.070;10.012;2022-09-21T12:26:46;0.75;;;0.50;;
30420;SDS011;17218;54.070;10.012;2022-09-21T12:29:16;1.15;;;0.50;;
30420;SDS011;17218;54.070;10.012;2022-09-21T12:31:52;1.58;;;0.60;;
30420;SDS011;17218;54.070;10.012;2022-09-21T12:34:28;0.85;;;0.40;;
30420;SDS011;17218;54.070;10.012;2022-09-21T12:37:01;0.38;;;0.38;;
30420;SDS011;17218;54.070;10.012;2022-09-21T12:39:34;0.50;;;0.50;;
30420;SDS011;17218;54.070;10.012;2022-09-21T12:42:08;0.68;;;0.45;;
30420;SDS011;17218;54.070;10.012;2022-09-21T12:44:46;0.38;;;0.35;;
30420;SDS011;17218;54.070;10.012;2022-09-21T12:47:18;0.68;;;0.50;;
30420;SDS011;17218;54.070;10.012;2022-09-21T12:49:54;2.50;;;0.40;;
30420;SDS011;17218;54.070;10.012;2022-09-21T12:52:25;0.52;;;0.40;;
30420;SDS011;17218;54.070;10.012;2022-09-21T12:54:55;0.98;;;0.47;;
30420;SDS011;17218;54.070;10.012;2022-09-21T12:57:27;0.50;;;0.45;;
30420;SDS011;17218;54.070;10.012;2022-09-21T13:00:02;0.40;;;0.40;;
30420;SDS011;17218;54.070;10.012;2022-09-21T13:02:32;0.70;;;0.40;;
30420;SDS011;17218;54.070;10.012;2022-09-21T13:05:06;0.43;;;0.43;;
30420;SDS011;17218;54.070;10.012;2022-09-21T13:10:34;0.30;;;0.30;;
30420;SDS011;17218;54.070;10.012;2022-09-21T13:13:06;0.70;;;0.40;;
30420;SDS011;17218;54.070;10.012;2022-09-21T13:15:43;0.85;;;0.50;;
30420;SDS011;17218;54.070;10.012;2022-09-21T13:18:15;1.38;;;0.70;;
30420;SDS011;17218;54.070;10.012;2022-09-21T13:20:46;0.80;;;0.50;;
30420;SDS011;17218;54.070;10.012;2022-09-21T13:23:16;0.55;;;0.50;;
30420;SDS011;17218;54.070;10.012;2022-09-21T13:26:02;0.88;;;0.40;;
30420;SDS011;17218;54.070;10.012;2022-09-21T13:28:38;0.60;;;0.50;;
30420;SDS011;17218;54.070;10.012;2022-09-21T13:34:18;3.72;;;0.70;;
30420;SDS011;17218;54.070;10.012;2022-09-21T13:43:16;0.80;;;0.40;;
30420;SDS011;17218;54.070;10.012;2022-09-21T13:45:48;1.67;;;0.50;;
30420;SDS011;17218;54.070;10.012;2022-09-21T13:48:18;1.27;;;0.50;;
30420;SDS011;17218;54.070;10.012;2022-09-21T13:50:57;0.40;;;0.40;;
30420;SDS011;17218;54.070;10.012;2022-09-21T13:53:27;1.35;;;0.60;;
30420;SDS011;17218;54.070;10.012;2022-09-21T13:55:59;0.35;;;0.35;;
30420;SDS011;17218;54.070;10.012;2022-09-21T13:58:34;0.75;;;0.50;;
30420;SDS011;17218;54.070;10.012;2022-09-21T14:01:11;0.65;;;0.60;;
30420;SDS011;17218;54.070;10.012;2022-09-21T14:03:41;1.33;;;0.50;;
30420;SDS011;17218;54.070;10.012;2022-09-21T14:06:11;0.82;;;0.40;;
30420;SDS011;17218;54.070;10.012;2022-09-21T14:08:44;1.55;;;0.40;;
30420;SDS011;17218;54.070;10.012;2022-09-21T14:11:14;0.45;;;0.40;;
30420;SDS011;17218;54.070;10.012;2022-09-21T14:13:44;0.50;;;0.50;;
30420;SDS011;17218;54.070;10.012;2022-09-21T14:22:36;0.93;;;0.65;;
30420;SDS011;17218;54.070;10.012;2022-09-21T14:27:57;0.60;;;0.60;;
30420;SDS011;17218;54.070;10.012;2022-09-21T14:30:28;0.50;;;0.50;;
30420;SDS011;17218;54.070;10.012;2022-09-21T14:33:06;0.40;;;0.40;;
30420;SDS011;17218;54.070;10.012;2022-09-21T14:35:42;0.40;;;0.40;;
30420;SDS011;17218;54.070;10.012;2022-09-21T14:38:13;1.20;;;0.45;;
30420;SDS011;17218;54.070;10.012;2022-09-21T14:40:44;0.95;;;0.40;;
30420;SDS011;17218;54.070;10.012;2022-09-21T14:43:15;1.17;;;0.70;;
30420;SDS011;17218;54.070;10.012;2022-09-21T14:45:50;1.38;;;0.55;;
30420;SDS011;17218;54.070;10.012;2022-09-21T14:48:29;1.23;;;0.57;;
30420;SDS011;17218;54.070;10.012;2022-09-21T14:51:05;1.58;;;0.63;;
30420;SDS011;17218;54.070;10.012;2022-09-21T14:53:50;0.82;;;0.30;;
30420;SDS011;17218;54.070;10.012;2022-09-21T14:56:41;1.33;;;0.80;;
30420;SDS011;17218;54.070;10.012;2022-09-21T14:59:26;0.43;;;0.43;;
30420;SDS011;17218;54.070;10.012;2022-09-21T15:02:13;1.13;;;0.60;;
30420;SDS011;17218;54.070;10.012;2022-09-21T15:04:56;2.75;;;0.63;;
30420;SDS011;17218;54.070;10.012;2022-09-21T15:07:41;2.92;;;0.90;;
30420;SDS011;17218;54.070;10.012;2022-09-21T15:10:33;1.38;;;0.60;;
30420;SDS011;17218;54.070;10.012;2022-09-21T15:19:10;0.95;;;0.80;;
30420;SDS011;17218;54.070;10.012;2022-09-21T15:21:39;0.93;;;0.60;;
30420;SDS011;17218;54.070;10.012;2022-09-21T15:24:22;0.50;;;0.50;;
30420;SDS011;17218;54.070;10.012;2022-09-21T15:26:52;0.60;;;0.55;;
30420;SDS011;17218;54.070;10.012;2022-09-21T15:29:24;2.35;;;0.80;;
30420;SDS011;17218;54.070;10.012;2022-09-21T15:31:52;0.60;;;0.55;;